sensor_id;sensor_type;location;lat;lon;timestamp;P1;durP1;ratioP1;P2;durP2;ratioP2
29452;SDS011;16424;50.956;5.320;2022-12-18T00:00:44;96.65;;;36.30;;
29452;SDS011;16424;50.956;5.320;2022-12-18T00:03:12;112.68;;;39.90;;
29452;SDS011;16424;50.956;5.320;2022-12-18T00:05:45;105.97;;;37.22;;
29452;SDS011;16424;50.956;5.320;2022-12-18T00:08:14;119.80;;;37.88;;
29452;SDS011;16424;50.956;5.320;2022-12-18T00:10:40;101.72;;;38.60;;
29452;SDS011;16424;50.956;5.320;2022-12-18T00:13:06;111.47;;;38.53;;
29452;SDS011;16424;50.956;5.320;2022-12-18T00:15:35;109.60;;;39.13;;
29452;SDS011;16424;50.956;5.320;2022-12-18T00:18:02;106.70;;;38.38;;
29452;SDS011;16424;50.956;5.320;2022-12-18T00:20:28;114.55;;;38.15;;
29452;SDS011;16424;50.956;5.320;2022-12-18T00:22:53;107.20;;;36.60;;
29452;SDS011;16424;50.956;5.320;2022-12-18T00:25:19;115.85;;;39.08;;
29452;SDS011;16424;50.956;5.320;2022-12-18T00:27:45;98.57;;;35.95;;
29452;SDS011;16424;50.956;5.320;2022-12-18T00:30:11;95.93;;;34.25;;
29452;SDS011;16424;50.956;5.320;2022-12-18T00:32:37;97.85;;;33.35;;
29452;SDS011;16424;50.956;5.320;2022-12-18T00:35:03;110.80;;;35.63;;
29452;SDS011;16424;50.956;5.320;2022-12-18T00:37:29;98.13;;;34.72;;
29452;SDS011;16424;50.956;5.320;2022-12-18T00:39:55;90.88;;;33.10;;
29452;SDS011;16424;50.956;5.320;2022-12-18T00:42:21;102.05;;;35.55;;
29452;SDS011;16424;50.956;5.320;2022-12-18T00:45:05;106.93;;;35.45;;
29452;SDS011;16424;50.956;5.320;2022-12-18T00:47:31;98.25;;;32.83;;
29452;SDS011;16424;50.956;5.320;2022-12-18T00:49:56;103.13;;;37.50;;
29452;SDS011;16424;50.956;5.320;2022-12-18T00:52:22;116.85;;;37.90;;
29452;SDS011;16424;50.956;5.320;2022-12-18T00:54:48;109.80;;;37.25;;
29452;SDS011;16424;50.956;5.320;2022-12-18T00:57:13;103.45;;;36.92;;
29452;SDS011;16424;50.956;5.320;2022-12-18T00:59:39;93.07;;;34.95;;
29452;SDS011;16424;50.956;5.320;2022-12-18T01:02:04;89.07;;;31.90;;
29452;SDS011;16424;50.956;5.320;2022-12-18T01:04:33;113.93;;;36.40;;
29452;SDS011;16424;50.956;5.320;2022-12-18T01:06:59;89.57;;;31.50;;
29452;SDS011;16424;50.956;5.320;2022-12-18T01:09:25;92.57;;;34.10;;
29452;SDS011;16424;50.956;5.320;2022-12-18T01:11:51;91.05;;;32.65;;
29452;SDS011;16424;50.956;5.320;2022-12-18T01:14:16;84.65;;;31.70;;
29452;SDS011;16424;50.956;5.320;2022-12-18T01:16:42;81.60;;;31.42;;
29452;SDS011;16424;50.956;5.320;2022-12-18T01:19:08;91.78;;;31.65;;
29452;SDS011;16424;50.956;5.320;2022-12-18T01:21:33;90.95;;;33.50;;
29452;SDS011;16424;50.956;5.320;2022-12-18T01:23:59;88.50;;;30.15;;
29452;SDS011;16424;50.956;5.320;2022-12-18T01:26:25;87.00;;;32.88;;
29452;SDS011;16424;50.956;5.320;2022-12-18T01:28:54;76.35;;;28.70;;
29452;SDS011;16424;50.956;5.320;2022-12-18T01:31:22;87.13;;;30.80;;
29452;SDS011;16424;50.956;5.320;2022-12-18T01:33:50;76.32;;;31.08;;
29452;SDS011;16424;50.956;5.320;2022-12-18T01:38:42;85.00;;;29.15;;
29452;SDS011;16424;50.956;5.320;2022-12-18T01:41:08;80.78;;;30.58;;
29452;SDS011;16424;50.956;5.320;2022-12-18T01:46:50;77.38;;;28.80;;
29452;SDS011;16424;50.956;5.320;2022-12-18T01:49:15;78.22;;;29.13;;
29452;SDS011;16424;50.956;5.320;2022-12-18T01:51:41;85.45;;;29.15;;
29452;SDS011;16424;50.956;5.320;2022-12-18T01:54:06;80.10;;;30.60;;
29452;SDS011;16424;50.956;5.320;2022-12-18T01:56:32;79.60;;;28.80;;
29452;SDS011;16424;50.956;5.320;2022-12-18T01:59:04;73.38;;;29.50;;
29452;SDS011;16424;50.956;5.320;2022-12-18T02:01:34;73.82;;;28.45;;
29452;SDS011;16424;50.956;5.320;2022-12-18T02:09:50;75.82;;;30.05;;
29452;SDS011;16424;50.956;5.320;2022-12-18T02:12:26;69.20;;;28.25;;
29452;SDS011;16424;50.956;5.320;2022-12-18T02:17:37;72.77;;;27.93;;
29452;SDS011;16424;50.956;5.320;2022-12-18T02:20:16;68.90;;;27.23;;
29452;SDS011;16424;50.956;5.320;2022-12-18T02:23:00;69.57;;;28.17;;
29452;SDS011;16424;50.956;5.320;2022-12-18T02:25:51;99.47;;;36.22;;
29452;SDS011;16424;50.956;5.320;2022-12-18T02:28:36;115.22;;;39.75;;
29452;SDS011;16424;50.956;5.320;2022-12-18T02:31:20;112.07;;;37.50;;
29452;SDS011;16424;50.956;5.320;2022-12-18T02:33:50;106.88;;;36.67;;
29452;SDS011;16424;50.956;5.320;2022-12-18T02:36:19;88.85;;;34.25;;
29452;SDS011;16424;50.956;5.320;2022-12-18T02:38:46;85.18;;;33.33;;
29452;SDS011;16424;50.956;5.320;2022-12-18T02:41:13;96.47;;;31.58;;
29452;SDS011;16424;50.956;5.320;2022-12-18T02:43:45;92.43;;;33.20;;
29452;SDS011;16424;50.956;5.320;2022-12-18T02:51:41;90.50;;;32.20;;
29452;SDS011;16424;50.956;5.320;2022-12-18T02:55:06;100.85;;;32.97;;
29452;SDS011;16424;50.956;5.320;2022-12-18T02:57:10;87.53;;;31.90;;
29452;SDS011;16424;50.956;5.320;2022-12-18T02:59:52;89.05;;;32.70;;
29452;SDS011;16424;50.956;5.320;2022-12-18T03:02:33;94.30;;;31.92;;
29452;SDS011;16424;50.956;5.320;2022-12-18T03:05:07;91.95;;;31.60;;
29452;SDS011;16424;50.956;5.320;2022-12-18T03:07:47;93.53;;;32.40;;
29452;SDS011;16424;50.956;5.320;2022-12-18T03:10:19;87.95;;;30.38;;
29452;SDS011;16424;50.956;5.320;2022-12-18T03:12:53;75.93;;;29.33;;
29452;SDS011;16424;50.956;5.320;2022-12-18T03:15:49;59.90;;;24.75;;
29452;SDS011;16424;50.956;5.320;2022-12-18T03:18:42;71.18;;;26.88;;
29452;SDS011;16424;50.956;5.320;2022-12-18T03:21:07;70.78;;;25.33;;
29452;SDS011;16424;50.956;5.320;2022-12-18T03:23:43;67.35;;;25.70;;
29452;SDS011;16424;50.956;5.320;2022-12-18T03:26:12;57.85;;;25.45;;
29452;SDS011;16424;50.956;5.320;2022-12-18T03:28:46;63.20;;;25.63;;
29452;SDS011;16424;50.956;5.320;2022-12-18T03:31:17;64.75;;;25.48;;
29452;SDS011;16424;50.956;5.320;2022-12-18T03:33:53;69.18;;;25.48;;
29452;SDS011;16424;50.956;5.320;2022-12-18T03:36:28;77.32;;;25.50;;
29452;SDS011;16424;50.956;5.320;2022-12-18T03:38:54;65.15;;;25.20;;
29452;SDS011;16424;50.956;5.320;2022-12-18T03:41:25;72.18;;;26.67;;
29452;SDS011;16424;50.956;5.320;2022-12-18T03:44:13;68.05;;;25.33;;
29452;SDS011;16424;50.956;5.320;2022-12-18T03:46:54;66.70;;;27.40;;
29452;SDS011;16424;50.956;5.320;2022-12-18T03:49:26;57.42;;;22.27;;
29452;SDS011;16424;50.956;5.320;2022-12-18T03:52:13;69.90;;;24.83;;
29452;SDS011;16424;50.956;5.320;2022-12-18T03:54:49;62.83;;;24.15;;
29452;SDS011;16424;50.956;5.320;2022-12-18T03:57:21;64.95;;;25.08;;
29452;SDS011;16424;50.956;5.320;2022-12-18T03:59:51;56.97;;;23.88;;
29452;SDS011;16424;50.956;5.320;2022-12-18T04:02:22;58.08;;;23.52;;
29452;SDS011;16424;50.956;5.320;2022-12-18T04:04:50;61.55;;;25.48;;
29452;SDS011;16424;50.956;5.320;2022-12-18T04:07:19;63.90;;;24.77;;
29452;SDS011;16424;50.956;5.320;2022-12-18T04:09:46;69.82;;;24.35;;
29452;SDS011;16424;50.956;5.320;2022-12-18T04:12:13;54.08;;;21.77;;
29452;SDS011;16424;50.956;5.320;2022-12-18T04:14:39;56.15;;;22.58;;
29452;SDS011;16424;50.956;5.320;2022-12-18T04:17:05;59.63;;;23.67;;
29452;SDS011;16424;50.956;5.320;2022-12-18T04:19:31;60.33;;;26.20;;
29452;SDS011;16424;50.956;5.320;2022-12-18T04:21:56;61.72;;;23.85;;
29452;SDS011;16424;50.956;5.320;2022-12-18T04:24:22;56.90;;;22.08;;
29452;SDS011;16424;50.956;5.320;2022-12-18T04:26:48;54.05;;;23.55;;
29452;SDS011;16424;50.956;5.320;2022-12-18T04:29:14;59.40;;;22.98;;
29452;SDS011;16424;50.956;5.320;2022-12-18T04:31:43;62.67;;;24.20;;
29452;SDS011;16424;50.956;5.320;2022-12-18T04:34:08;56.75;;;22.73;;
29452;SDS011;16424;50.956;5.320;2022-12-18T04:36:34;58.28;;;23.58;;
29452;SDS011;16424;50.956;5.320;2022-12-18T04:38:59;52.35;;;20.77;;
29452;SDS011;16424;50.956;5.320;2022-12-18T04:41:25;51.95;;;22.20;;
29452;SDS011;16424;50.956;5.320;2022-12-18T04:43:51;59.47;;;22.95;;
29452;SDS011;16424;50.956;5.320;2022-12-18T04:46:16;59.40;;;21.15;;
29452;SDS011;16424;50.956;5.320;2022-12-18T04:48:44;52.97;;;20.73;;
29452;SDS011;16424;50.956;5.320;2022-12-18T04:51:10;52.58;;;22.45;;
29452;SDS011;16424;50.956;5.320;2022-12-18T04:53:36;53.45;;;22.35;;
29452;SDS011;16424;50.956;5.320;2022-12-18T04:56:12;54.08;;;21.65;;
29452;SDS011;16424;50.956;5.320;2022-12-18T04:58:40;58.08;;;22.90;;
29452;SDS011;16424;50.956;5.320;2022-12-18T05:01:07;55.45;;;21.90;;
29452;SDS011;16424;50.956;5.320;2022-12-18T05:03:33;50.08;;;20.45;;
29452;SDS011;16424;50.956;5.320;2022-12-18T05:05:59;44.70;;;20.60;;
29452;SDS011;16424;50.956;5.320;2022-12-18T05:08:25;50.47;;;20.73;;
29452;SDS011;16424;50.956;5.320;2022-12-18T05:11:01;54.90;;;22.67;;
29452;SDS011;16424;50.956;5.320;2022-12-18T05:13:33;46.40;;;21.02;;
29452;SDS011;16424;50.956;5.320;2022-12-18T05:15:59;52.92;;;22.25;;
29452;SDS011;16424;50.956;5.320;2022-12-18T05:18:25;60.40;;;21.08;;
29452;SDS011;16424;50.956;5.320;2022-12-18T05:20:52;53.85;;;21.00;;
29452;SDS011;16424;50.956;5.320;2022-12-18T05:23:19;57.00;;;21.05;;
29452;SDS011;16424;50.956;5.320;2022-12-18T05:26:04;58.95;;;22.15;;
29452;SDS011;16424;50.956;5.320;2022-12-18T05:28:31;51.33;;;21.77;;
29452;SDS011;16424;50.956;5.320;2022-12-18T05:30:59;55.33;;;21.17;;
29452;SDS011;16424;50.956;5.320;2022-12-18T05:33:28;63.08;;;24.45;;
29452;SDS011;16424;50.956;5.320;2022-12-18T05:35:57;56.72;;;21.73;;
29452;SDS011;16424;50.956;5.320;2022-12-18T05:38:29;56.80;;;22.35;;
29452;SDS011;16424;50.956;5.320;2022-12-18T05:40:56;63.47;;;24.00;;
29452;SDS011;16424;50.956;5.320;2022-12-18T05:43:22;57.70;;;22.60;;
29452;SDS011;16424;50.956;5.320;2022-12-18T05:45:49;61.05;;;23.85;;
29452;SDS011;16424;50.956;5.320;2022-12-18T05:48:15;66.65;;;24.38;;
29452;SDS011;16424;50.956;5.320;2022-12-18T05:50:42;73.85;;;28.02;;
29452;SDS011;16424;50.956;5.320;2022-12-18T05:53:10;79.50;;;26.60;;
29452;SDS011;16424;50.956;5.320;2022-12-18T05:55:38;72.20;;;25.77;;
29452;SDS011;16424;50.956;5.320;2022-12-18T05:58:05;65.93;;;25.13;;
29452;SDS011;16424;50.956;5.320;2022-12-18T06:00:33;64.63;;;25.38;;
29452;SDS011;16424;50.956;5.320;2022-12-18T06:03:01;68.68;;;24.92;;
29452;SDS011;16424;50.956;5.320;2022-12-18T06:05:27;55.60;;;21.70;;
29452;SDS011;16424;50.956;5.320;2022-12-18T06:07:52;53.08;;;22.45;;
29452;SDS011;16424;50.956;5.320;2022-12-18T06:10:18;51.08;;;21.92;;
29452;SDS011;16424;50.956;5.320;2022-12-18T06:12:44;60.28;;;22.25;;
29452;SDS011;16424;50.956;5.320;2022-12-18T06:15:10;53.58;;;20.80;;
29452;SDS011;16424;50.956;5.320;2022-12-18T06:17:36;52.00;;;20.10;;
29452;SDS011;16424;50.956;5.320;2022-12-18T06:20:03;54.45;;;22.02;;
29452;SDS011;16424;50.956;5.320;2022-12-18T06:22:30;45.05;;;20.45;;
29452;SDS011;16424;50.956;5.320;2022-12-18T06:24:57;47.35;;;19.85;;
29452;SDS011;16424;50.956;5.320;2022-12-18T06:27:22;49.83;;;21.55;;
29452;SDS011;16424;50.956;5.320;2022-12-18T06:29:48;52.42;;;21.75;;
29452;SDS011;16424;50.956;5.320;2022-12-18T06:32:14;50.97;;;20.00;;
29452;SDS011;16424;50.956;5.320;2022-12-18T06:34:40;41.90;;;18.75;;
29452;SDS011;16424;50.956;5.320;2022-12-18T06:37:06;40.35;;;17.90;;
29452;SDS011;16424;50.956;5.320;2022-12-18T06:39:31;46.45;;;18.75;;
29452;SDS011;16424;50.956;5.320;2022-12-18T06:41:57;40.80;;;18.10;;
29452;SDS011;16424;50.956;5.320;2022-12-18T06:44:23;40.85;;;17.95;;
29452;SDS011;16424;50.956;5.320;2022-12-18T06:46:49;34.35;;;15.55;;
29452;SDS011;16424;50.956;5.320;2022-12-18T06:49:20;37.97;;;17.20;;
29452;SDS011;16424;50.956;5.320;2022-12-18T06:51:48;31.27;;;15.30;;
29452;SDS011;16424;50.956;5.320;2022-12-18T06:54:14;37.85;;;15.38;;
29452;SDS011;16424;50.956;5.320;2022-12-18T06:56:39;39.00;;;15.82;;
29452;SDS011;16424;50.956;5.320;2022-12-18T06:59:05;34.92;;;16.98;;
29452;SDS011;16424;50.956;5.320;2022-12-18T07:01:31;37.45;;;16.60;;
29452;SDS011;16424;50.956;5.320;2022-12-18T07:03:56;31.85;;;15.02;;
29452;SDS011;16424;50.956;5.320;2022-12-18T07:06:25;37.38;;;16.05;;
29452;SDS011;16424;50.956;5.320;2022-12-18T07:08:51;40.42;;;16.20;;
29452;SDS011;16424;50.956;5.320;2022-12-18T07:11:18;32.20;;;15.10;;
29452;SDS011;16424;50.956;5.320;2022-12-18T07:13:44;33.78;;;16.23;;
29452;SDS011;16424;50.956;5.320;2022-12-18T07:16:12;30.70;;;13.85;;
29452;SDS011;16424;50.956;5.320;2022-12-18T07:18:39;31.73;;;15.18;;
29452;SDS011;16424;50.956;5.320;2022-12-18T07:21:08;43.60;;;14.82;;
29452;SDS011;16424;50.956;5.320;2022-12-18T07:23:36;31.38;;;14.30;;
29452;SDS011;16424;50.956;5.320;2022-12-18T07:26:05;38.67;;;14.60;;
29452;SDS011;16424;50.956;5.320;2022-12-18T07:28:33;29.02;;;13.38;;
29452;SDS011;16424;50.956;5.320;2022-12-18T07:31:03;26.45;;;13.57;;
29452;SDS011;16424;50.956;5.320;2022-12-18T07:33:32;28.88;;;12.90;;
29452;SDS011;16424;50.956;5.320;2022-12-18T07:35:59;32.83;;;14.85;;
29452;SDS011;16424;50.956;5.320;2022-12-18T07:38:25;29.33;;;13.65;;
29452;SDS011;16424;50.956;5.320;2022-12-18T07:40:51;30.13;;;14.50;;
29452;SDS011;16424;50.956;5.320;2022-12-18T07:43:16;29.95;;;13.65;;
29452;SDS011;16424;50.956;5.320;2022-12-18T07:45:42;34.45;;;14.05;;
29452;SDS011;16424;50.956;5.320;2022-12-18T07:48:08;35.60;;;14.15;;
29452;SDS011;16424;50.956;5.320;2022-12-18T07:50:34;31.73;;;13.65;;
29452;SDS011;16424;50.956;5.320;2022-12-18T07:52:59;24.45;;;12.80;;
29452;SDS011;16424;50.956;5.320;2022-12-18T07:55:28;26.55;;;12.43;;
29452;SDS011;16424;50.956;5.320;2022-12-18T07:57:55;31.08;;;12.85;;
29452;SDS011;16424;50.956;5.320;2022-12-18T08:00:20;23.67;;;12.48;;
29452;SDS011;16424;50.956;5.320;2022-12-18T08:02:46;24.48;;;12.73;;
29452;SDS011;16424;50.956;5.320;2022-12-18T08:05:12;29.08;;;13.35;;
29452;SDS011;16424;50.956;5.320;2022-12-18T08:07:38;27.27;;;12.77;;
29452;SDS011;16424;50.956;5.320;2022-12-18T08:10:04;31.23;;;13.70;;
29452;SDS011;16424;50.956;5.320;2022-12-18T08:12:31;24.55;;;12.55;;
29452;SDS011;16424;50.956;5.320;2022-12-18T08:14:57;30.15;;;12.38;;
29452;SDS011;16424;50.956;5.320;2022-12-18T08:17:22;28.58;;;12.70;;
29452;SDS011;16424;50.956;5.320;2022-12-18T08:19:48;26.92;;;12.85;;
29452;SDS011;16424;50.956;5.320;2022-12-18T08:22:14;28.98;;;12.68;;
29452;SDS011;16424;50.956;5.320;2022-12-18T08:24:39;24.25;;;12.45;;
29452;SDS011;16424;50.956;5.320;2022-12-18T08:27:05;29.58;;;13.63;;
29452;SDS011;16424;50.956;5.320;2022-12-18T08:29:30;28.27;;;12.73;;
29452;SDS011;16424;50.956;5.320;2022-12-18T08:31:56;30.20;;;13.52;;
29452;SDS011;16424;50.956;5.320;2022-12-18T08:34:25;25.42;;;11.90;;
29452;SDS011;16424;50.956;5.320;2022-12-18T08:36:51;27.67;;;13.93;;
29452;SDS011;16424;50.956;5.320;2022-12-18T08:39:16;27.42;;;12.65;;
29452;SDS011;16424;50.956;5.320;2022-12-18T08:41:42;34.28;;;13.63;;
29452;SDS011;16424;50.956;5.320;2022-12-18T08:44:31;32.95;;;13.77;;
29452;SDS011;16424;50.956;5.320;2022-12-18T08:47:02;28.77;;;13.13;;
29452;SDS011;16424;50.956;5.320;2022-12-18T08:49:28;21.88;;;12.23;;
29452;SDS011;16424;50.956;5.320;2022-12-18T08:51:54;21.85;;;11.73;;
29452;SDS011;16424;50.956;5.320;2022-12-18T08:54:22;29.75;;;13.63;;
29452;SDS011;16424;50.956;5.320;2022-12-18T08:56:48;27.05;;;13.18;;
29452;SDS011;16424;50.956;5.320;2022-12-18T08:59:14;29.00;;;15.18;;
29452;SDS011;16424;50.956;5.320;2022-12-18T09:01:41;33.85;;;13.43;;
29452;SDS011;16424;50.956;5.320;2022-12-18T09:04:07;27.27;;;13.52;;
29452;SDS011;16424;50.956;5.320;2022-12-18T09:06:34;24.95;;;12.73;;
29452;SDS011;16424;50.956;5.320;2022-12-18T09:08:59;28.70;;;13.65;;
29452;SDS011;16424;50.956;5.320;2022-12-18T09:11:26;28.40;;;14.10;;
29452;SDS011;16424;50.956;5.320;2022-12-18T09:13:53;24.67;;;12.40;;
29452;SDS011;16424;50.956;5.320;2022-12-18T09:16:20;32.90;;;14.20;;
29452;SDS011;16424;50.956;5.320;2022-12-18T09:18:46;30.52;;;13.43;;
29452;SDS011;16424;50.956;5.320;2022-12-18T09:21:19;30.67;;;13.57;;
29452;SDS011;16424;50.956;5.320;2022-12-18T09:23:52;27.20;;;13.68;;
29452;SDS011;16424;50.956;5.320;2022-12-18T09:26:19;19.92;;;10.40;;
29452;SDS011;16424;50.956;5.320;2022-12-18T09:28:46;30.35;;;13.77;;
29452;SDS011;16424;50.956;5.320;2022-12-18T09:31:12;28.20;;;13.30;;
29452;SDS011;16424;50.956;5.320;2022-12-18T09:33:38;32.00;;;15.63;;
29452;SDS011;16424;50.956;5.320;2022-12-18T09:36:05;28.75;;;13.65;;
29452;SDS011;16424;50.956;5.320;2022-12-18T09:38:31;26.30;;;12.60;;
29452;SDS011;16424;50.956;5.320;2022-12-18T09:43:50;30.63;;;14.15;;
29452;SDS011;16424;50.956;5.320;2022-12-18T09:46:20;34.53;;;15.13;;
29452;SDS011;16424;50.956;5.320;2022-12-18T09:48:52;39.03;;;17.10;;
29452;SDS011;16424;50.956;5.320;2022-12-18T09:51:26;36.28;;;16.77;;
29452;SDS011;16424;50.956;5.320;2022-12-18T09:54:01;35.85;;;16.85;;
29452;SDS011;16424;50.956;5.320;2022-12-18T09:56:35;34.28;;;14.93;;
29452;SDS011;16424;50.956;5.320;2022-12-18T09:59:04;31.55;;;17.17;;
29452;SDS011;16424;50.956;5.320;2022-12-18T10:01:31;30.35;;;15.18;;
29452;SDS011;16424;50.956;5.320;2022-12-18T10:03:57;36.13;;;15.95;;
29452;SDS011;16424;50.956;5.320;2022-12-18T10:17:07;29.48;;;16.20;;
29452;SDS011;16424;50.956;5.320;2022-12-18T10:25:24;54.70;;;23.67;;
29452;SDS011;16424;50.956;5.320;2022-12-18T10:28:07;49.45;;;22.27;;
29452;SDS011;16424;50.956;5.320;2022-12-18T10:30:38;46.88;;;20.00;;
29452;SDS011;16424;50.956;5.320;2022-12-18T10:33:05;38.85;;;19.08;;
29452;SDS011;16424;50.956;5.320;2022-12-18T10:35:34;39.17;;;18.77;;
29452;SDS011;16424;50.956;5.320;2022-12-18T10:43:14;30.80;;;15.88;;
29452;SDS011;16424;50.956;5.320;2022-12-18T10:45:41;33.17;;;15.57;;
29452;SDS011;16424;50.956;5.320;2022-12-18T10:51:32;30.77;;;14.65;;
29452;SDS011;16424;50.956;5.320;2022-12-18T11:07:09;28.13;;;14.18;;
29452;SDS011;16424;50.956;5.320;2022-12-18T11:09:39;28.88;;;14.60;;
29452;SDS011;16424;50.956;5.320;2022-12-18T11:17:48;27.95;;;14.50;;
29452;SDS011;16424;50.956;5.320;2022-12-18T11:20:14;27.40;;;13.32;;
29452;SDS011;16424;50.956;5.320;2022-12-18T11:22:55;33.38;;;13.93;;
29452;SDS011;16424;50.956;5.320;2022-12-18T11:25:23;31.70;;;14.15;;
29452;SDS011;16424;50.956;5.320;2022-12-18T11:27:51;28.98;;;14.52;;
29452;SDS011;16424;50.956;5.320;2022-12-18T11:30:27;28.15;;;14.45;;
29452;SDS011;16424;50.956;5.320;2022-12-18T11:35:39;36.25;;;14.88;;
29452;SDS011;16424;50.956;5.320;2022-12-18T11:40:58;42.72;;;19.15;;
29452;SDS011;16424;50.956;5.320;2022-12-18T11:43:34;49.60;;;28.15;;
29452;SDS011;16424;50.956;5.320;2022-12-18T11:46:15;39.80;;;20.92;;
29452;SDS011;16424;50.956;5.320;2022-12-18T11:48:50;29.33;;;17.08;;
29452;SDS011;16424;50.956;5.320;2022-12-18T11:51:28;31.85;;;14.57;;
29452;SDS011;16424;50.956;5.320;2022-12-18T11:54:00;30.42;;;13.70;;
29452;SDS011;16424;50.956;5.320;2022-12-18T11:56:36;25.95;;;13.75;;
29452;SDS011;16424;50.956;5.320;2022-12-18T11:59:11;27.40;;;14.73;;
29452;SDS011;16424;50.956;5.320;2022-12-18T12:01:51;27.00;;;13.32;;
29452;SDS011;16424;50.956;5.320;2022-12-18T12:20:42;25.45;;;14.35;;
29452;SDS011;16424;50.956;5.320;2022-12-18T12:26:07;29.05;;;14.32;;
29452;SDS011;16424;50.956;5.320;2022-12-18T12:31:52;27.92;;;14.25;;
29452;SDS011;16424;50.956;5.320;2022-12-18T12:34:30;31.17;;;14.32;;
29452;SDS011;16424;50.956;5.320;2022-12-18T12:40:00;27.73;;;15.25;;
29452;SDS011;16424;50.956;5.320;2022-12-18T12:42:30;26.38;;;13.43;;
29452;SDS011;16424;50.956;5.320;2022-12-18T12:45:22;28.60;;;13.85;;
29452;SDS011;16424;50.956;5.320;2022-12-18T12:47:53;27.98;;;13.55;;
29452;SDS011;16424;50.956;5.320;2022-12-18T12:50:20;25.33;;;12.68;;
29452;SDS011;16424;50.956;5.320;2022-12-18T12:52:49;31.70;;;15.50;;
29452;SDS011;16424;50.956;5.320;2022-12-18T12:55:24;28.35;;;13.77;;
29452;SDS011;16424;50.956;5.320;2022-12-18T13:00:49;35.42;;;15.40;;
29452;SDS011;16424;50.956;5.320;2022-12-18T13:04:08;30.23;;;16.02;;
29452;SDS011;16424;50.956;5.320;2022-12-18T13:09:15;24.35;;;13.85;;
29452;SDS011;16424;50.956;5.320;2022-12-18T13:11:47;35.90;;;18.23;;
29452;SDS011;16424;50.956;5.320;2022-12-18T13:14:38;36.95;;;17.08;;
29452;SDS011;16424;50.956;5.320;2022-12-18T13:19:49;28.92;;;14.88;;
29452;SDS011;16424;50.956;5.320;2022-12-18T13:22:21;60.42;;;30.15;;
29452;SDS011;16424;50.956;5.320;2022-12-18T13:24:48;36.47;;;18.33;;
29452;SDS011;16424;50.956;5.320;2022-12-18T13:38:21;32.92;;;17.20;;
29452;SDS011;16424;50.956;5.320;2022-12-18T13:40:58;45.83;;;19.15;;
29452;SDS011;16424;50.956;5.320;2022-12-18T13:48:41;39.95;;;17.20;;
29452;SDS011;16424;50.956;5.320;2022-12-18T13:51:25;33.67;;;16.60;;
29452;SDS011;16424;50.956;5.320;2022-12-18T13:54:02;31.60;;;16.20;;
29452;SDS011;16424;50.956;5.320;2022-12-18T13:56:42;34.85;;;17.95;;
29452;SDS011;16424;50.956;5.320;2022-12-18T13:59:11;32.33;;;16.58;;
29452;SDS011;16424;50.956;5.320;2022-12-18T14:01:44;34.80;;;16.77;;
29452;SDS011;16424;50.956;5.320;2022-12-18T14:04:34;35.95;;;17.52;;
29452;SDS011;16424;50.956;5.320;2022-12-18T14:07:33;32.42;;;15.82;;
29452;SDS011;16424;50.956;5.320;2022-12-18T14:09:57;37.72;;;17.65;;
29452;SDS011;16424;50.956;5.320;2022-12-18T14:12:32;41.45;;;18.80;;
29452;SDS011;16424;50.956;5.320;2022-12-18T14:17:54;61.88;;;22.70;;
29452;SDS011;16424;50.956;5.320;2022-12-18T14:20:22;63.85;;;23.90;;
29452;SDS011;16424;50.956;5.320;2022-12-18T14:22:49;50.03;;;21.52;;
29452;SDS011;16424;50.956;5.320;2022-12-18T14:27:44;29.25;;;15.05;;
29452;SDS011;16424;50.956;5.320;2022-12-18T14:30:30;44.58;;;21.17;;
29452;SDS011;16424;50.956;5.320;2022-12-18T14:35:27;52.70;;;23.77;;
29452;SDS011;16424;50.956;5.320;2022-12-18T14:37:53;49.15;;;22.70;;
29452;SDS011;16424;50.956;5.320;2022-12-18T14:40:32;78.57;;;30.63;;
29452;SDS011;16424;50.956;5.320;2022-12-18T14:42:57;66.20;;;26.25;;
29452;SDS011;16424;50.956;5.320;2022-12-18T14:45:33;64.15;;;26.75;;
29452;SDS011;16424;50.956;5.320;2022-12-18T14:47:59;46.97;;;22.50;;
29452;SDS011;16424;50.956;5.320;2022-12-18T14:50:25;41.63;;;19.52;;
29452;SDS011;16424;50.956;5.320;2022-12-18T14:52:51;40.95;;;19.48;;
29452;SDS011;16424;50.956;5.320;2022-12-18T14:55:18;41.50;;;19.98;;
29452;SDS011;16424;50.956;5.320;2022-12-18T14:57:45;46.97;;;18.75;;
29452;SDS011;16424;50.956;5.320;2022-12-18T15:00:18;36.65;;;17.15;;
29452;SDS011;16424;50.956;5.320;2022-12-18T15:02:55;35.30;;;16.38;;
29452;SDS011;16424;50.956;5.320;2022-12-18T15:05:29;51.75;;;15.20;;
29452;SDS011;16424;50.956;5.320;2022-12-18T15:07:57;22.43;;;11.80;;
29452;SDS011;16424;50.956;5.320;2022-12-18T15:10:25;27.42;;;14.70;;
29452;SDS011;16424;50.956;5.320;2022-12-18T15:20:27;33.60;;;17.52;;
29452;SDS011;16424;50.956;5.320;2022-12-18T15:22:56;34.00;;;16.58;;
29452;SDS011;16424;50.956;5.320;2022-12-18T15:27:58;28.02;;;14.45;;
29452;SDS011;16424;50.956;5.320;2022-12-18T15:30:24;33.47;;;15.25;;
29452;SDS011;16424;50.956;5.320;2022-12-18T15:32:51;36.83;;;16.88;;
29452;SDS011;16424;50.956;5.320;2022-12-18T15:35:24;28.25;;;15.65;;
29452;SDS011;16424;50.956;5.320;2022-12-18T15:37:50;45.45;;;20.13;;
29452;SDS011;16424;50.956;5.320;2022-12-18T15:40:17;43.38;;;17.20;;
29452;SDS011;16424;50.956;5.320;2022-12-18T15:42:46;38.03;;;18.92;;
29452;SDS011;16424;50.956;5.320;2022-12-18T15:45:30;37.75;;;16.48;;
29452;SDS011;16424;50.956;5.320;2022-12-18T15:47:56;37.97;;;17.00;;
29452;SDS011;16424;50.956;5.320;2022-12-18T15:50:22;28.50;;;15.13;;
29452;SDS011;16424;50.956;5.320;2022-12-18T15:52:49;34.58;;;16.90;;
29452;SDS011;16424;50.956;5.320;2022-12-18T15:55:19;33.00;;;17.13;;
29452;SDS011;16424;50.956;5.320;2022-12-18T15:58:05;29.95;;;14.68;;
29452;SDS011;16424;50.956;5.320;2022-12-18T16:00:31;27.50;;;13.80;;
29452;SDS011;16424;50.956;5.320;2022-12-18T16:02:58;35.60;;;16.00;;
29452;SDS011;16424;50.956;5.320;2022-12-18T16:05:24;31.23;;;16.15;;
29452;SDS011;16424;50.956;5.320;2022-12-18T16:07:51;30.42;;;14.80;;
29452;SDS011;16424;50.956;5.320;2022-12-18T16:10:17;30.38;;;15.38;;
29452;SDS011;16424;50.956;5.320;2022-12-18T16:12:42;35.40;;;16.27;;
29452;SDS011;16424;50.956;5.320;2022-12-18T16:15:10;36.03;;;15.40;;
29452;SDS011;16424;50.956;5.320;2022-12-18T16:17:39;29.88;;;16.35;;
29452;SDS011;16424;50.956;5.320;2022-12-18T16:20:06;32.80;;;16.63;;
29452;SDS011;16424;50.956;5.320;2022-12-18T16:22:42;33.70;;;15.63;;
29452;SDS011;16424;50.956;5.320;2022-12-18T16:25:19;32.47;;;16.38;;
29452;SDS011;16424;50.956;5.320;2022-12-18T16:27:46;32.97;;;15.85;;
29452;SDS011;16424;50.956;5.320;2022-12-18T16:30:15;33.25;;;16.50;;
29452;SDS011;16424;50.956;5.320;2022-12-18T16:32:43;35.45;;;17.70;;
29452;SDS011;16424;50.956;5.320;2022-12-18T16:35:10;35.53;;;17.63;;
29452;SDS011;16424;50.956;5.320;2022-12-18T16:37:36;34.47;;;16.90;;
29452;SDS011;16424;50.956;5.320;2022-12-18T17:36:58;40.38;;;19.75;;
29452;SDS011;16424;50.956;5.320;2022-12-18T17:39:24;39.45;;;19.42;;
29452;SDS011;16424;50.956;5.320;2022-12-18T21:48:18;45.25;;;21.45;;
29452;SDS011;16424;50.956;5.320;2022-12-18T21:50:44;44.72;;;21.48;;
29452;SDS011;16424;50.956;5.320;2022-12-18T21:53:09;43.70;;;20.27;;
29452;SDS011;16424;50.956;5.320;2022-12-18T21:55:35;44.63;;;20.95;;
29452;SDS011;16424;50.956;5.320;2022-12-18T21:58:00;44.78;;;20.45;;